sensor_id;sensor_type;location;lat;lon;timestamp;P1;durP1;ratioP1;P2;durP2;ratioP2
39612;SDS011;25303;48.896;13.342;2023-09-19T00:01:26;0.98;;;0.60;;
39612;SDS011;25303;48.896;13.342;2023-09-19T00:04:10;0.80;;;0.60;;
39612;SDS011;25303;48.896;13.342;2023-09-19T00:06:54;1.45;;;0.80;;
39612;SDS011;25303;48.896;13.342;2023-09-19T00:09:37;1.27;;;0.88;;
39612;SDS011;25303;48.896;13.342;2023-09-19T00:12:20;1.02;;;0.88;;
39612;SDS011;25303;48.896;13.342;2023-09-19T00:15:03;0.75;;;0.60;;
39612;SDS011;25303;48.896;13.342;2023-09-19T00:20:35;3.15;;;1.02;;
39612;SDS011;25303;48.896;13.342;2023-09-19T00:23:18;1.30;;;0.90;;
39612;SDS011;25303;48.896;13.342;2023-09-19T00:26:03;3.88;;;1.10;;
39612;SDS011;25303;48.896;13.342;2023-09-19T00:28:46;1.63;;;1.10;;
39612;SDS011;25303;48.896;13.342;2023-09-19T00:31:28;1.88;;;1.10;;
39612;SDS011;25303;48.896;13.342;2023-09-19T00:34:13;1.70;;;1.10;;
39612;SDS011;25303;48.896;13.342;2023-09-19T00:36:58;1.77;;;1.10;;
39612;SDS011;25303;48.896;13.342;2023-09-19T00:39:41;2.97;;;1.10;;
39612;SDS011;25303;48.896;13.342;2023-09-19T00:42:24;2.08;;;1.30;;
39612;SDS011;25303;48.896;13.342;2023-09-19T00:45:07;4.03;;;1.10;;
39612;SDS011;25303;48.896;13.342;2023-09-19T00:47:53;1.98;;;1.15;;
39612;SDS011;25303;48.896;13.342;2023-09-19T00:50:38;2.45;;;0.80;;
39612;SDS011;25303;48.896;13.342;2023-09-19T00:53:25;1.17;;;0.88;;
39612;SDS011;25303;48.896;13.342;2023-09-19T00:56:09;2.17;;;0.90;;
39612;SDS011;25303;48.896;13.342;2023-09-19T00:58:51;2.30;;;1.25;;
39612;SDS011;25303;48.896;13.342;2023-09-19T01:01:35;2.03;;;1.42;;
39612;SDS011;25303;48.896;13.342;2023-09-19T01:04:21;2.38;;;1.35;;
39612;SDS011;25303;48.896;13.342;2023-09-19T01:07:06;1.63;;;0.93;;
39612;SDS011;25303;48.896;13.342;2023-09-19T01:12:37;2.05;;;1.00;;
39612;SDS011;25303;48.896;13.342;2023-09-19T01:15:32;2.17;;;1.20;;
39612;SDS011;25303;48.896;13.342;2023-09-19T01:18:33;2.83;;;1.13;;
39612;SDS011;25303;48.896;13.342;2023-09-19T01:21:26;1.60;;;1.13;;
39612;SDS011;25303;48.896;13.342;2023-09-19T01:24:34;1.50;;;1.02;;
39612;SDS011;25303;48.896;13.342;2023-09-19T01:27:48;1.63;;;1.30;;
39612;SDS011;25303;48.896;13.342;2023-09-19T01:30:51;1.55;;;1.00;;
39612;SDS011;25303;48.896;13.342;2023-09-19T01:33:54;1.48;;;1.08;;
39612;SDS011;25303;48.896;13.342;2023-09-19T01:36:42;3.22;;;1.50;;
39612;SDS011;25303;48.896;13.342;2023-09-19T01:39:27;1.55;;;1.17;;
39612;SDS011;25303;48.896;13.342;2023-09-19T01:42:12;2.25;;;1.40;;
39612;SDS011;25303;48.896;13.342;2023-09-19T01:45:06;3.47;;;1.50;;
39612;SDS011;25303;48.896;13.342;2023-09-19T01:47:56;1.83;;;1.17;;
39612;SDS011;25303;48.896;13.342;2023-09-19T01:50:49;3.38;;;1.50;;
39612;SDS011;25303;48.896;13.342;2023-09-19T01:53:43;1.67;;;1.25;;
39612;SDS011;25303;48.896;13.342;2023-09-19T01:56:34;3.88;;;1.38;;
39612;SDS011;25303;48.896;13.342;2023-09-19T01:59:21;2.92;;;1.75;;
39612;SDS011;25303;48.896;13.342;2023-09-19T02:02:09;2.03;;;1.52;;
39612;SDS011;25303;48.896;13.342;2023-09-19T02:04:54;1.85;;;1.00;;
39612;SDS011;25303;48.896;13.342;2023-09-19T02:07:41;1.52;;;1.40;;
39612;SDS011;25303;48.896;13.342;2023-09-19T02:10:24;2.83;;;1.83;;
39612;SDS011;25303;48.896;13.342;2023-09-19T02:13:07;2.20;;;1.73;;
39612;SDS011;25303;48.896;13.342;2023-09-19T02:15:51;2.33;;;1.80;;
39612;SDS011;25303;48.896;13.342;2023-09-19T02:18:34;2.33;;;1.15;;
39612;SDS011;25303;48.896;13.342;2023-09-19T02:21:18;2.83;;;1.88;;
39612;SDS011;25303;48.896;13.342;2023-09-19T02:24:03;1.52;;;1.25;;
39612;SDS011;25303;48.896;13.342;2023-09-19T02:26:47;2.67;;;1.97;;
39612;SDS011;25303;48.896;13.342;2023-09-19T02:29:30;3.13;;;1.73;;
39612;SDS011;25303;48.896;13.342;2023-09-19T02:32:13;2.58;;;2.20;;
39612;SDS011;25303;48.896;13.342;2023-09-19T02:34:56;3.90;;;2.20;;
39612;SDS011;25303;48.896;13.342;2023-09-19T02:37:43;2.67;;;2.17;;
39612;SDS011;25303;48.896;13.342;2023-09-19T02:40:26;2.80;;;1.88;;
39612;SDS011;25303;48.896;13.342;2023-09-19T02:43:10;2.35;;;1.60;;
39612;SDS011;25303;48.896;13.342;2023-09-19T02:45:53;2.42;;;1.92;;
39612;SDS011;25303;48.896;13.342;2023-09-19T02:48:36;2.45;;;1.67;;
39612;SDS011;25303;48.896;13.342;2023-09-19T02:51:20;3.38;;;2.33;;
39612;SDS011;25303;48.896;13.342;2023-09-19T02:54:04;1.90;;;1.52;;
39612;SDS011;25303;48.896;13.342;2023-09-19T02:59:31;2.00;;;1.45;;
39612;SDS011;25303;48.896;13.342;2023-09-19T03:02:14;2.13;;;1.63;;
39612;SDS011;25303;48.896;13.342;2023-09-19T03:04:57;2.13;;;1.75;;
39612;SDS011;25303;48.896;13.342;2023-09-19T03:10:29;2.40;;;1.80;;
39612;SDS011;25303;48.896;13.342;2023-09-19T03:13:12;1.50;;;1.30;;
39612;SDS011;25303;48.896;13.342;2023-09-19T03:15:56;2.65;;;1.67;;
39612;SDS011;25303;48.896;13.342;2023-09-19T03:18:41;2.08;;;1.50;;
39612;SDS011;25303;48.896;13.342;2023-09-19T03:21:24;2.92;;;1.75;;
39612;SDS011;25303;48.896;13.342;2023-09-19T03:24:08;5.22;;;1.85;;
39612;SDS011;25303;48.896;13.342;2023-09-19T03:26:53;1.60;;;1.33;;
39612;SDS011;25303;48.896;13.342;2023-09-19T03:29:36;2.42;;;1.70;;
39612;SDS011;25303;48.896;13.342;2023-09-19T03:32:20;3.35;;;2.25;;
39612;SDS011;25303;48.896;13.342;2023-09-19T03:35:04;4.20;;;1.77;;
39612;SDS011;25303;48.896;13.342;2023-09-19T03:37:49;3.35;;;2.10;;
39612;SDS011;25303;48.896;13.342;2023-09-19T03:40:34;1.75;;;1.23;;
39612;SDS011;25303;48.896;13.342;2023-09-19T03:43:21;2.20;;;1.73;;
39612;SDS011;25303;48.896;13.342;2023-09-19T03:46:04;3.67;;;1.52;;
39612;SDS011;25303;48.896;13.342;2023-09-19T03:48:48;3.10;;;2.28;;
39612;SDS011;25303;48.896;13.342;2023-09-19T03:51:31;1.73;;;1.52;;
39612;SDS011;25303;48.896;13.342;2023-09-19T03:54:16;2.28;;;1.90;;
39612;SDS011;25303;48.896;13.342;2023-09-19T03:57:00;2.47;;;1.88;;
39612;SDS011;25303;48.896;13.342;2023-09-19T03:59:46;2.93;;;2.00;;
39612;SDS011;25303;48.896;13.342;2023-09-19T04:02:29;3.17;;;1.77;;
39612;SDS011;25303;48.896;13.342;2023-09-19T04:05:14;3.30;;;1.70;;
39612;SDS011;25303;48.896;13.342;2023-09-19T04:07:58;2.45;;;1.60;;
39612;SDS011;25303;48.896;13.342;2023-09-19T04:10:41;2.72;;;1.73;;
39612;SDS011;25303;48.896;13.342;2023-09-19T04:13:26;2.33;;;1.75;;
39612;SDS011;25303;48.896;13.342;2023-09-19T04:16:11;2.85;;;1.90;;
39612;SDS011;25303;48.896;13.342;2023-09-19T04:18:55;2.47;;;1.60;;
39612;SDS011;25303;48.896;13.342;2023-09-19T04:21:38;3.05;;;2.13;;
39612;SDS011;25303;48.896;13.342;2023-09-19T04:24:21;4.18;;;2.35;;
39612;SDS011;25303;48.896;13.342;2023-09-19T04:27:04;3.28;;;2.10;;
39612;SDS011;25303;48.896;13.342;2023-09-19T04:29:47;2.92;;;1.67;;
39612;SDS011;25303;48.896;13.342;2023-09-19T04:35:17;2.53;;;1.77;;
39612;SDS011;25303;48.896;13.342;2023-09-19T04:38:00;3.28;;;2.00;;
39612;SDS011;25303;48.896;13.342;2023-09-19T04:40:44;2.50;;;2.08;;
39612;SDS011;25303;48.896;13.342;2023-09-19T04:43:27;3.60;;;2.45;;
39612;SDS011;25303;48.896;13.342;2023-09-19T04:46:12;3.27;;;2.30;;
39612;SDS011;25303;48.896;13.342;2023-09-19T04:48:56;3.35;;;2.00;;
39612;SDS011;25303;48.896;13.342;2023-09-19T04:54:24;3.13;;;1.90;;
39612;SDS011;25303;48.896;13.342;2023-09-19T04:57:08;3.33;;;2.35;;
39612;SDS011;25303;48.896;13.342;2023-09-19T04:59:51;4.20;;;3.30;;
39612;SDS011;25303;48.896;13.342;2023-09-19T05:02:35;3.40;;;2.93;;
39612;SDS011;25303;48.896;13.342;2023-09-19T05:05:20;3.72;;;3.05;;
39612;SDS011;25303;48.896;13.342;2023-09-19T05:08:04;4.70;;;3.25;;
39612;SDS011;25303;48.896;13.342;2023-09-19T05:10:47;4.97;;;3.13;;
39612;SDS011;25303;48.896;13.342;2023-09-19T05:13:31;5.35;;;3.88;;
39612;SDS011;25303;48.896;13.342;2023-09-19T05:16:14;4.38;;;2.97;;
39612;SDS011;25303;48.896;13.342;2023-09-19T05:18:57;4.70;;;3.33;;
39612;SDS011;25303;48.896;13.342;2023-09-19T05:21:42;4.70;;;4.20;;
39612;SDS011;25303;48.896;13.342;2023-09-19T05:24:26;4.68;;;3.72;;
39612;SDS011;25303;48.896;13.342;2023-09-19T05:27:08;4.53;;;3.72;;
39612;SDS011;25303;48.896;13.342;2023-09-19T05:29:52;4.78;;;3.85;;
39612;SDS011;25303;48.896;13.342;2023-09-19T05:32:37;4.72;;;4.03;;
39612;SDS011;25303;48.896;13.342;2023-09-19T05:35:20;7.05;;;4.97;;
39612;SDS011;25303;48.896;13.342;2023-09-19T05:38:05;6.97;;;4.25;;
39612;SDS011;25303;48.896;13.342;2023-09-19T05:40:50;4.50;;;4.10;;
39612;SDS011;25303;48.896;13.342;2023-09-19T05:43:33;4.80;;;3.83;;
39612;SDS011;25303;48.896;13.342;2023-09-19T05:46:19;4.07;;;3.50;;
39612;SDS011;25303;48.896;13.342;2023-09-19T05:49:02;4.10;;;3.25;;
39612;SDS011;25303;48.896;13.342;2023-09-19T05:51:45;3.65;;;3.25;;
39612;SDS011;25303;48.896;13.342;2023-09-19T05:54:29;4.07;;;3.53;;
39612;SDS011;25303;48.896;13.342;2023-09-19T05:57:12;8.35;;;3.70;;
39612;SDS011;25303;48.896;13.342;2023-09-19T05:59:56;4.47;;;3.38;;
39612;SDS011;25303;48.896;13.342;2023-09-19T06:02:40;4.70;;;3.58;;
39612;SDS011;25303;48.896;13.342;2023-09-19T06:05:26;3.53;;;3.00;;
39612;SDS011;25303;48.896;13.342;2023-09-19T06:08:11;4.05;;;3.15;;
39612;SDS011;25303;48.896;13.342;2023-09-19T06:10:56;4.15;;;3.20;;
39612;SDS011;25303;48.896;13.342;2023-09-19T06:13:39;5.03;;;3.70;;
39612;SDS011;25303;48.896;13.342;2023-09-19T06:16:22;5.35;;;3.60;;
39612;SDS011;25303;48.896;13.342;2023-09-19T06:19:05;4.18;;;3.70;;
39612;SDS011;25303;48.896;13.342;2023-09-19T06:24:33;3.47;;;2.92;;
39612;SDS011;25303;48.896;13.342;2023-09-19T06:27:17;6.32;;;4.22;;
39612;SDS011;25303;48.896;13.342;2023-09-19T06:30:00;4.03;;;3.17;;
39612;SDS011;25303;48.896;13.342;2023-09-19T06:32:43;5.25;;;3.60;;
39612;SDS011;25303;48.896;13.342;2023-09-19T06:35:27;5.50;;;3.33;;
39612;SDS011;25303;48.896;13.342;2023-09-19T06:38:12;3.75;;;2.67;;
39612;SDS011;25303;48.896;13.342;2023-09-19T06:40:58;4.35;;;2.88;;
39612;SDS011;25303;48.896;13.342;2023-09-19T06:43:42;4.90;;;2.92;;
39612;SDS011;25303;48.896;13.342;2023-09-19T06:49:14;3.97;;;2.60;;
39612;SDS011;25303;48.896;13.342;2023-09-19T06:51:57;3.72;;;2.95;;
39612;SDS011;25303;48.896;13.342;2023-09-19T06:54:41;3.25;;;2.63;;
39612;SDS011;25303;48.896;13.342;2023-09-19T06:57:24;4.18;;;2.97;;
39612;SDS011;25303;48.896;13.342;2023-09-19T07:00:09;3.40;;;2.70;;
39612;SDS011;25303;48.896;13.342;2023-09-19T07:03:01;2.92;;;2.60;;
39612;SDS011;25303;48.896;13.342;2023-09-19T07:05:47;4.45;;;2.72;;
39612;SDS011;25303;48.896;13.342;2023-09-19T07:08:30;3.30;;;3.00;;
39612;SDS011;25303;48.896;13.342;2023-09-19T07:11:13;2.55;;;2.35;;
39612;SDS011;25303;48.896;13.342;2023-09-19T07:13:57;2.88;;;2.60;;
39612;SDS011;25303;48.896;13.342;2023-09-19T07:16:41;2.63;;;2.42;;
39612;SDS011;25303;48.896;13.342;2023-09-19T07:19:26;2.22;;;1.88;;
39612;SDS011;25303;48.896;13.342;2023-09-19T07:22:11;2.25;;;1.92;;
39612;SDS011;25303;48.896;13.342;2023-09-19T07:24:54;2.55;;;1.95;;
39612;SDS011;25303;48.896;13.342;2023-09-19T07:27:37;2.03;;;1.73;;
39612;SDS011;25303;48.896;13.342;2023-09-19T07:30:20;3.63;;;1.92;;
39612;SDS011;25303;48.896;13.342;2023-09-19T07:33:05;3.80;;;1.90;;
39612;SDS011;25303;48.896;13.342;2023-09-19T07:35:48;1.60;;;1.50;;
39612;SDS011;25303;48.896;13.342;2023-09-19T07:38:31;2.28;;;1.65;;
39612;SDS011;25303;48.896;13.342;2023-09-19T07:41:17;2.08;;;1.60;;
39612;SDS011;25303;48.896;13.342;2023-09-19T07:43:59;1.52;;;1.40;;
39612;SDS011;25303;48.896;13.342;2023-09-19T07:46:42;2.03;;;1.48;;
39612;SDS011;25303;48.896;13.342;2023-09-19T07:49:27;1.63;;;1.40;;
39612;SDS011;25303;48.896;13.342;2023-09-19T07:52:10;3.80;;;1.77;;
39612;SDS011;25303;48.896;13.342;2023-09-19T07:54:53;2.20;;;1.17;;
39612;SDS011;25303;48.896;13.342;2023-09-19T07:57:38;1.90;;;1.33;;
39612;SDS011;25303;48.896;13.342;2023-09-19T08:00:22;1.60;;;1.17;;
39612;SDS011;25303;48.896;13.342;2023-09-19T08:03:05;2.03;;;1.50;;
39612;SDS011;25303;48.896;13.342;2023-09-19T08:05:58;1.98;;;1.30;;
39612;SDS011;25303;48.896;13.342;2023-09-19T08:11:24;1.92;;;0.93;;
39612;SDS011;25303;48.896;13.342;2023-09-19T08:14:08;2.10;;;1.25;;
39612;SDS011;25303;48.896;13.342;2023-09-19T08:16:56;3.50;;;1.30;;
39612;SDS011;25303;48.896;13.342;2023-09-19T08:19:41;1.63;;;1.00;;
39612;SDS011;25303;48.896;13.342;2023-09-19T08:22:27;1.98;;;1.20;;
39612;SDS011;25303;48.896;13.342;2023-09-19T08:25:10;1.08;;;0.82;;
39612;SDS011;25303;48.896;13.342;2023-09-19T08:27:54;2.35;;;1.00;;
39612;SDS011;25303;48.896;13.342;2023-09-19T08:30:39;2.30;;;1.10;;
39612;SDS011;25303;48.896;13.342;2023-09-19T08:33:22;2.15;;;0.90;;
39612;SDS011;25303;48.896;13.342;2023-09-19T08:36:06;2.25;;;1.17;;
39612;SDS011;25303;48.896;13.342;2023-09-19T08:38:52;1.77;;;0.80;;
39612;SDS011;25303;48.896;13.342;2023-09-19T08:41:35;2.00;;;1.00;;
39612;SDS011;25303;48.896;13.342;2023-09-19T08:44:17;4.55;;;0.95;;
39612;SDS011;25303;48.896;13.342;2023-09-19T08:47:01;2.10;;;0.90;;
39612;SDS011;25303;48.896;13.342;2023-09-19T08:49:53;1.33;;;0.70;;
39612;SDS011;25303;48.896;13.342;2023-09-19T08:52:44;2.95;;;0.90;;
39612;SDS011;25303;48.896;13.342;2023-09-19T08:55:34;1.33;;;0.80;;
39612;SDS011;25303;48.896;13.342;2023-09-19T08:58:16;1.10;;;0.70;;
39612;SDS011;25303;48.896;13.342;2023-09-19T09:01:06;0.80;;;0.63;;
39612;SDS011;25303;48.896;13.342;2023-09-19T09:03:51;1.67;;;0.80;;
39612;SDS011;25303;48.896;13.342;2023-09-19T09:06:34;1.20;;;0.73;;
39612;SDS011;25303;48.896;13.342;2023-09-19T09:09:20;1.17;;;0.60;;
39612;SDS011;25303;48.896;13.342;2023-09-19T09:12:05;0.93;;;0.70;;
39612;SDS011;25303;48.896;13.342;2023-09-19T09:14:48;1.88;;;0.82;;
39612;SDS011;25303;48.896;13.342;2023-09-19T09:17:31;2.42;;;0.70;;
39612;SDS011;25303;48.896;13.342;2023-09-19T09:20:14;0.63;;;0.40;;
39612;SDS011;25303;48.896;13.342;2023-09-19T09:22:57;2.25;;;0.70;;
39612;SDS011;25303;48.896;13.342;2023-09-19T09:25:49;1.30;;;0.63;;
39612;SDS011;25303;48.896;13.342;2023-09-19T09:28:44;2.35;;;0.70;;
39612;SDS011;25303;48.896;13.342;2023-09-19T09:31:29;1.30;;;0.70;;
39612;SDS011;25303;48.896;13.342;2023-09-19T09:34:13;0.97;;;0.50;;
39612;SDS011;25303;48.896;13.342;2023-09-19T09:36:56;1.10;;;0.50;;
39612;SDS011;25303;48.896;13.342;2023-09-19T09:39:39;0.95;;;0.65;;
39612;SDS011;25303;48.896;13.342;2023-09-19T09:42:30;0.75;;;0.60;;
39612;SDS011;25303;48.896;13.342;2023-09-19T09:45:18;1.77;;;0.60;;
39612;SDS011;25303;48.896;13.342;2023-09-19T09:48:10;1.08;;;0.60;;
39612;SDS011;25303;48.896;13.342;2023-09-19T09:50:56;1.40;;;0.50;;
39612;SDS011;25303;48.896;13.342;2023-09-19T09:53:44;0.63;;;0.47;;
39612;SDS011;25303;48.896;13.342;2023-09-19T09:56:27;1.38;;;0.70;;
39612;SDS011;25303;48.896;13.342;2023-09-19T09:59:15;1.40;;;0.50;;
39612;SDS011;25303;48.896;13.342;2023-09-19T10:02:02;1.30;;;0.80;;
39612;SDS011;25303;48.896;13.342;2023-09-19T10:04:46;1.35;;;0.80;;
39612;SDS011;25303;48.896;13.342;2023-09-19T10:07:41;1.17;;;0.70;;
39612;SDS011;25303;48.896;13.342;2023-09-19T10:10:31;1.20;;;0.80;;
39612;SDS011;25303;48.896;13.342;2023-09-19T10:13:26;1.23;;;0.70;;
39612;SDS011;25303;48.896;13.342;2023-09-19T10:16:12;1.50;;;0.63;;
39612;SDS011;25303;48.896;13.342;2023-09-19T10:19:02;0.95;;;0.57;;
39612;SDS011;25303;48.896;13.342;2023-09-19T10:21:50;1.88;;;0.63;;
39612;SDS011;25303;48.896;13.342;2023-09-19T10:24:37;0.60;;;0.40;;
39612;SDS011;25303;48.896;13.342;2023-09-19T10:27:42;1.00;;;0.60;;
39612;SDS011;25303;48.896;13.342;2023-09-19T10:30:26;2.83;;;0.60;;
39612;SDS011;25303;48.896;13.342;2023-09-19T10:33:13;1.20;;;0.77;;
39612;SDS011;25303;48.896;13.342;2023-09-19T10:35:58;0.80;;;0.65;;
39612;SDS011;25303;48.896;13.342;2023-09-19T10:38:43;0.70;;;0.70;;
39612;SDS011;25303;48.896;13.342;2023-09-19T10:41:28;1.83;;;0.80;;
39612;SDS011;25303;48.896;13.342;2023-09-19T10:44:13;1.38;;;0.50;;
39612;SDS011;25303;48.896;13.342;2023-09-19T10:46:56;2.78;;;0.60;;
39612;SDS011;25303;48.896;13.342;2023-09-19T10:49:43;0.83;;;0.50;;
39612;SDS011;25303;48.896;13.342;2023-09-19T10:52:29;1.58;;;0.55;;
39612;SDS011;25303;48.896;13.342;2023-09-19T10:55:15;3.03;;;0.80;;
39612;SDS011;25303;48.896;13.342;2023-09-19T10:58:00;1.10;;;0.52;;
39612;SDS011;25303;48.896;13.342;2023-09-19T11:00:51;0.60;;;0.50;;
39612;SDS011;25303;48.896;13.342;2023-09-19T11:03:36;0.93;;;0.60;;
39612;SDS011;25303;48.896;13.342;2023-09-19T11:06:24;2.03;;;0.68;;
39612;SDS011;25303;48.896;13.342;2023-09-19T11:09:09;1.23;;;0.50;;
39612;SDS011;25303;48.896;13.342;2023-09-19T11:12:04;0.68;;;0.60;;
39612;SDS011;25303;48.896;13.342;2023-09-19T11:14:47;1.55;;;0.50;;
39612;SDS011;25303;48.896;13.342;2023-09-19T11:17:33;1.08;;;0.70;;
39612;SDS011;25303;48.896;13.342;2023-09-19T11:20:23;1.70;;;0.70;;
39612;SDS011;25303;48.896;13.342;2023-09-19T11:23:20;1.70;;;0.80;;
39612;SDS011;25303;48.896;13.342;2023-09-19T11:26:10;0.93;;;0.60;;
39612;SDS011;25303;48.896;13.342;2023-09-19T11:29:27;2.67;;;0.73;;
39612;SDS011;25303;48.896;13.342;2023-09-19T11:32:12;1.77;;;0.68;;
39612;SDS011;25303;48.896;13.342;2023-09-19T11:35:06;2.33;;;0.73;;
39612;SDS011;25303;48.896;13.342;2023-09-19T11:37:59;0.63;;;0.60;;
39612;SDS011;25303;48.896;13.342;2023-09-19T11:47:22;2.33;;;0.70;;
39612;SDS011;25303;48.896;13.342;2023-09-19T11:50:06;1.23;;;0.88;;
39612;SDS011;25303;48.896;13.342;2023-09-19T11:52:52;3.80;;;1.00;;
39612;SDS011;25303;48.896;13.342;2023-09-19T11:55:37;1.50;;;0.95;;
39612;SDS011;25303;48.896;13.342;2023-09-19T11:58:20;1.58;;;0.82;;
39612;SDS011;25303;48.896;13.342;2023-09-19T12:01:07;0.93;;;0.60;;
39612;SDS011;25303;48.896;13.342;2023-09-19T12:03:55;1.05;;;0.70;;
39612;SDS011;25303;48.896;13.342;2023-09-19T12:06:40;2.35;;;0.60;;
39612;SDS011;25303;48.896;13.342;2023-09-19T12:09:25;0.85;;;0.52;;
39612;SDS011;25303;48.896;13.342;2023-09-19T12:12:09;2.53;;;0.60;;
39612;SDS011;25303;48.896;13.342;2023-09-19T12:14:54;1.58;;;0.60;;
39612;SDS011;25303;48.896;13.342;2023-09-19T12:17:41;1.08;;;0.55;;
39612;SDS011;25303;48.896;13.342;2023-09-19T12:20:25;3.38;;;0.98;;
39612;SDS011;25303;48.896;13.342;2023-09-19T12:23:23;2.42;;;0.70;;
39612;SDS011;25303;48.896;13.342;2023-09-19T12:26:07;1.55;;;0.52;;
39612;SDS011;25303;48.896;13.342;2023-09-19T12:28:54;0.77;;;0.50;;
39612;SDS011;25303;48.896;13.342;2023-09-19T12:31:37;0.82;;;0.50;;
39612;SDS011;25303;48.896;13.342;2023-09-19T12:34:33;0.93;;;0.60;;
39612;SDS011;25303;48.896;13.342;2023-09-19T12:37:17;0.50;;;0.45;;
39612;SDS011;25303;48.896;13.342;2023-09-19T12:40:04;1.48;;;0.80;;
39612;SDS011;25303;48.896;13.342;2023-09-19T12:42:57;1.90;;;0.65;;
39612;SDS011;25303;48.896;13.342;2023-09-19T12:45:42;2.15;;;0.60;;
39612;SDS011;25303;48.896;13.342;2023-09-19T12:48:26;1.58;;;0.70;;
39612;SDS011;25303;48.896;13.342;2023-09-19T12:51:15;0.80;;;0.60;;
39612;SDS011;25303;48.896;13.342;2023-09-19T12:54:04;0.80;;;0.60;;
39612;SDS011;25303;48.896;13.342;2023-09-19T12:56:46;1.33;;;0.68;;
39612;SDS011;25303;48.896;13.342;2023-09-19T12:59:31;1.00;;;0.70;;
39612;SDS011;25303;48.896;13.342;2023-09-19T13:02:14;1.20;;;0.85;;
39612;SDS011;25303;48.896;13.342;2023-09-19T13:05:00;1.40;;;0.90;;
39612;SDS011;25303;48.896;13.342;2023-09-19T13:07:49;1.50;;;0.90;;
39612;SDS011;25303;48.896;13.342;2023-09-19T13:10:36;4.97;;;1.00;;
39612;SDS011;25303;48.896;13.342;2023-09-19T13:13:43;1.75;;;0.90;;
39612;SDS011;25303;48.896;13.342;2023-09-19T13:16:31;2.92;;;1.10;;
39612;SDS011;25303;48.896;13.342;2023-09-19T13:19:14;1.63;;;0.80;;
39612;SDS011;25303;48.896;13.342;2023-09-19T13:22:36;1.92;;;1.02;;
39612;SDS011;25303;48.896;13.342;2023-09-19T13:25:22;1.77;;;0.80;;
39612;SDS011;25303;48.896;13.342;2023-09-19T13:28:05;3.50;;;0.70;;
39612;SDS011;25303;48.896;13.342;2023-09-19T13:30:48;1.83;;;0.95;;
39612;SDS011;25303;48.896;13.342;2023-09-19T13:33:31;1.63;;;0.80;;
39612;SDS011;25303;48.896;13.342;2023-09-19T13:36:15;1.13;;;0.70;;
39612;SDS011;25303;48.896;13.342;2023-09-19T13:39:00;1.13;;;0.60;;
39612;SDS011;25303;48.896;13.342;2023-09-19T13:41:45;0.98;;;0.63;;
39612;SDS011;25303;48.896;13.342;2023-09-19T13:44:29;1.10;;;0.68;;
39612;SDS011;25303;48.896;13.342;2023-09-19T13:47:12;1.40;;;0.80;;
39612;SDS011;25303;48.896;13.342;2023-09-19T13:49:56;0.98;;;0.70;;
39612;SDS011;25303;48.896;13.342;2023-09-19T13:52:39;1.52;;;0.80;;
39612;SDS011;25303;48.896;13.342;2023-09-19T13:55:22;1.02;;;0.70;;
39612;SDS011;25303;48.896;13.342;2023-09-19T13:58:07;0.77;;;0.63;;
39612;SDS011;25303;48.896;13.342;2023-09-19T14:00:52;1.67;;;0.80;;
39612;SDS011;25303;48.896;13.342;2023-09-19T14:03:39;0.70;;;0.60;;
39612;SDS011;25303;48.896;13.342;2023-09-19T14:06:28;1.42;;;0.70;;
39612;SDS011;25303;48.896;13.342;2023-09-19T14:09:11;1.85;;;0.80;;
39612;SDS011;25303;48.896;13.342;2023-09-19T14:11:54;1.63;;;0.60;;
39612;SDS011;25303;48.896;13.342;2023-09-19T14:14:39;1.13;;;0.60;;
39612;SDS011;25303;48.896;13.342;2023-09-19T14:17:23;1.80;;;0.80;;
39612;SDS011;25303;48.896;13.342;2023-09-19T14:20:07;1.08;;;0.80;;
39612;SDS011;25303;48.896;13.342;2023-09-19T14:25:35;1.20;;;0.80;;
39612;SDS011;25303;48.896;13.342;2023-09-19T14:31:07;2.85;;;0.70;;
39612;SDS011;25303;48.896;13.342;2023-09-19T14:33:54;1.52;;;0.70;;
39612;SDS011;25303;48.896;13.342;2023-09-19T14:36:38;0.98;;;0.60;;
39612;SDS011;25303;48.896;13.342;2023-09-19T14:39:21;1.15;;;0.82;;
39612;SDS011;25303;48.896;13.342;2023-09-19T14:42:04;1.10;;;0.70;;
39612;SDS011;25303;48.896;13.342;2023-09-19T14:44:47;0.95;;;0.60;;
39612;SDS011;25303;48.896;13.342;2023-09-19T14:47:32;3.50;;;0.70;;
39612;SDS011;25303;48.896;13.342;2023-09-19T14:52:58;0.90;;;0.55;;
39612;SDS011;25303;48.896;13.342;2023-09-19T14:55:43;1.02;;;0.80;;
39612;SDS011;25303;48.896;13.342;2023-09-19T14:58:29;1.85;;;0.80;;
39612;SDS011;25303;48.896;13.342;2023-09-19T15:01:12;1.98;;;0.70;;
39612;SDS011;25303;48.896;13.342;2023-09-19T15:03:57;1.73;;;0.52;;
39612;SDS011;25303;48.896;13.342;2023-09-19T15:06:42;0.90;;;0.60;;
39612;SDS011;25303;48.896;13.342;2023-09-19T15:09:26;1.55;;;0.90;;
39612;SDS011;25303;48.896;13.342;2023-09-19T15:12:09;1.13;;;0.70;;
39612;SDS011;25303;48.896;13.342;2023-09-19T15:14:55;1.38;;;0.80;;
39612;SDS011;25303;48.896;13.342;2023-09-19T15:17:38;1.00;;;0.60;;
39612;SDS011;25303;48.896;13.342;2023-09-19T15:20:23;1.38;;;0.70;;
39612;SDS011;25303;48.896;13.342;2023-09-19T15:23:06;1.73;;;0.70;;
39612;SDS011;25303;48.896;13.342;2023-09-19T15:25:49;2.58;;;0.80;;
39612;SDS011;25303;48.896;13.342;2023-09-19T15:28:34;1.05;;;0.63;;
39612;SDS011;25303;48.896;13.342;2023-09-19T15:31:18;1.30;;;0.70;;
39612;SDS011;25303;48.896;13.342;2023-09-19T15:34:01;1.15;;;0.60;;
39612;SDS011;25303;48.896;13.342;2023-09-19T15:36:46;1.25;;;0.60;;
39612;SDS011;25303;48.896;13.342;2023-09-19T15:39:29;2.90;;;0.70;;
39612;SDS011;25303;48.896;13.342;2023-09-19T15:42:14;1.23;;;0.70;;
39612;SDS011;25303;48.896;13.342;2023-09-19T15:44:57;0.90;;;0.47;;
39612;SDS011;25303;48.896;13.342;2023-09-19T15:47:40;0.50;;;0.45;;
39612;SDS011;25303;48.896;13.342;2023-09-19T15:50:23;1.15;;;0.40;;
39612;SDS011;25303;48.896;13.342;2023-09-19T15:53:08;1.70;;;0.60;;
39612;SDS011;25303;48.896;13.342;2023-09-19T15:55:51;1.20;;;0.60;;
39612;SDS011;25303;48.896;13.342;2023-09-19T15:58:34;1.77;;;0.50;;
39612;SDS011;25303;48.896;13.342;2023-09-19T16:01:20;4.60;;;0.80;;
39612;SDS011;25303;48.896;13.342;2023-09-19T16:04:04;1.08;;;0.70;;
39612;SDS011;25303;48.896;13.342;2023-09-19T16:06:50;1.63;;;0.70;;
39612;SDS011;25303;48.896;13.342;2023-09-19T16:09:35;1.23;;;0.70;;
39612;SDS011;25303;48.896;13.342;2023-09-19T16:12:17;3.65;;;2.80;;
39612;SDS011;25303;48.896;13.342;2023-09-19T16:15:01;2.20;;;1.38;;
39612;SDS011;25303;48.896;13.342;2023-09-19T16:17:43;1.42;;;1.00;;
39612;SDS011;25303;48.896;13.342;2023-09-19T16:20:26;3.38;;;0.88;;
39612;SDS011;25303;48.896;13.342;2023-09-19T16:23:10;5.78;;;3.40;;
39612;SDS011;25303;48.896;13.342;2023-09-19T16:26:01;5.85;;;4.05;;
39612;SDS011;25303;48.896;13.342;2023-09-19T16:28:46;5.05;;;3.10;;
39612;SDS011;25303;48.896;13.342;2023-09-19T16:31:30;2.97;;;1.70;;
39612;SDS011;25303;48.896;13.342;2023-09-19T16:37:00;2.10;;;1.20;;
39612;SDS011;25303;48.896;13.342;2023-09-19T16:39:44;1.50;;;1.10;;
39612;SDS011;25303;48.896;13.342;2023-09-19T16:42:28;3.97;;;1.92;;
39612;SDS011;25303;48.896;13.342;2023-09-19T16:45:19;1.90;;;1.40;;
39612;SDS011;25303;48.896;13.342;2023-09-19T16:48:03;6.00;;;3.60;;
39612;SDS011;25303;48.896;13.342;2023-09-19T16:50:48;2.80;;;1.60;;
39612;SDS011;25303;48.896;13.342;2023-09-19T16:53:32;5.78;;;2.50;;
39612;SDS011;25303;48.896;13.342;2023-09-19T16:56:16;4.72;;;2.22;;
39612;SDS011;25303;48.896;13.342;2023-09-19T16:59:02;4.18;;;2.50;;
39612;SDS011;25303;48.896;13.342;2023-09-19T17:01:46;5.88;;;3.60;;
39612;SDS011;25303;48.896;13.342;2023-09-19T17:04:29;4.28;;;2.50;;